sensor_id;sensor_type;location;lat;lon;timestamp;P1;durP1;ratioP1;P2;durP2;ratioP2
3625;SDS011;1827;50.534;8.316;2022-07-29T00:00:42;24.70;;;2.60;;
3625;SDS011;1827;50.534;8.316;2022-07-29T00:03:11;21.13;;;2.80;;
3625;SDS011;1827;50.534;8.316;2022-07-29T00:05:38;20.30;;;2.73;;
3625;SDS011;1827;50.534;8.316;2022-07-29T00:08:07;24.53;;;2.80;;
3625;SDS011;1827;50.534;8.316;2022-07-29T00:10:34;17.53;;;2.60;;
3625;SDS011;1827;50.534;8.316;2022-07-29T00:13:00;17.70;;;2.70;;
3625;SDS011;1827;50.534;8.316;2022-07-29T00:15:26;20.70;;;2.83;;
3625;SDS011;1827;50.534;8.316;2022-07-29T00:17:52;18.53;;;2.53;;
3625;SDS011;1827;50.534;8.316;2022-07-29T00:20:18;23.07;;;3.00;;
3625;SDS011;1827;50.534;8.316;2022-07-29T00:22:44;16.43;;;3.10;;
3625;SDS011;1827;50.534;8.316;2022-07-29T00:25:11;19.50;;;3.10;;
3625;SDS011;1827;50.534;8.316;2022-07-29T00:27:37;19.20;;;3.10;;
3625;SDS011;1827;50.534;8.316;2022-07-29T00:30:04;20.00;;;2.60;;
3625;SDS011;1827;50.534;8.316;2022-07-29T00:32:30;21.80;;;2.83;;
3625;SDS011;1827;50.534;8.316;2022-07-29T00:34:56;18.10;;;2.60;;
3625;SDS011;1827;50.534;8.316;2022-07-29T00:37:40;18.00;;;2.40;;
3625;SDS011;1827;50.534;8.316;2022-07-29T00:40:06;16.17;;;2.43;;
3625;SDS011;1827;50.534;8.316;2022-07-29T00:42:43;20.33;;;3.00;;
3625;SDS011;1827;50.534;8.316;2022-07-29T00:45:11;18.60;;;2.40;;
3625;SDS011;1827;50.534;8.316;2022-07-29T00:47:37;18.07;;;2.87;;
3625;SDS011;1827;50.534;8.316;2022-07-29T00:50:04;19.90;;;2.63;;
3625;SDS011;1827;50.534;8.316;2022-07-29T00:52:32;20.40;;;2.60;;
3625;SDS011;1827;50.534;8.316;2022-07-29T00:54:59;17.30;;;2.90;;
3625;SDS011;1827;50.534;8.316;2022-07-29T00:57:25;19.87;;;2.60;;
3625;SDS011;1827;50.534;8.316;2022-07-29T00:59:50;25.03;;;2.60;;
3625;SDS011;1827;50.534;8.316;2022-07-29T01:02:16;19.63;;;3.13;;
3625;SDS011;1827;50.534;8.316;2022-07-29T01:04:42;18.90;;;2.93;;
3625;SDS011;1827;50.534;8.316;2022-07-29T01:07:08;22.13;;;3.23;;
3625;SDS011;1827;50.534;8.316;2022-07-29T01:09:35;23.73;;;3.43;;
3625;SDS011;1827;50.534;8.316;2022-07-29T01:12:02;22.60;;;3.10;;
3625;SDS011;1827;50.534;8.316;2022-07-29T01:14:29;19.70;;;3.10;;
3625;SDS011;1827;50.534;8.316;2022-07-29T01:17:00;25.63;;;2.47;;
3625;SDS011;1827;50.534;8.316;2022-07-29T01:19:48;21.87;;;2.70;;
3625;SDS011;1827;50.534;8.316;2022-07-29T01:30:29;22.03;;;2.90;;
3625;SDS011;1827;50.534;8.316;2022-07-29T01:32:59;23.23;;;2.90;;
3625;SDS011;1827;50.534;8.316;2022-07-29T01:35:34;27.07;;;2.70;;
3625;SDS011;1827;50.534;8.316;2022-07-29T01:38:22;24.13;;;2.80;;
3625;SDS011;1827;50.534;8.316;2022-07-29T01:40:52;18.93;;;3.00;;
3625;SDS011;1827;50.534;8.316;2022-07-29T01:43:38;21.90;;;3.47;;
3625;SDS011;1827;50.534;8.316;2022-07-29T01:46:10;17.20;;;3.17;;
3625;SDS011;1827;50.534;8.316;2022-07-29T01:48:45;19.80;;;3.20;;
3625;SDS011;1827;50.534;8.316;2022-07-29T01:51:20;21.67;;;2.90;;
3625;SDS011;1827;50.534;8.316;2022-07-29T01:53:55;16.97;;;2.80;;
3625;SDS011;1827;50.534;8.316;2022-07-29T01:56:23;22.80;;;3.67;;
3625;SDS011;1827;50.534;8.316;2022-07-29T01:58:54;18.10;;;3.10;;
3625;SDS011;1827;50.534;8.316;2022-07-29T02:01:22;20.00;;;3.50;;
3625;SDS011;1827;50.534;8.316;2022-07-29T02:03:51;18.90;;;3.50;;
3625;SDS011;1827;50.534;8.316;2022-07-29T02:06:21;21.30;;;3.40;;
3625;SDS011;1827;50.534;8.316;2022-07-29T02:08:48;19.70;;;3.10;;
3625;SDS011;1827;50.534;8.316;2022-07-29T02:11:17;19.53;;;3.30;;
3625;SDS011;1827;50.534;8.316;2022-07-29T02:13:43;16.97;;;3.07;;
3625;SDS011;1827;50.534;8.316;2022-07-29T02:16:10;20.47;;;3.17;;
3625;SDS011;1827;50.534;8.316;2022-07-29T02:18:38;25.77;;;3.20;;
3625;SDS011;1827;50.534;8.316;2022-07-29T02:21:08;25.00;;;3.40;;
3625;SDS011;1827;50.534;8.316;2022-07-29T02:23:35;19.40;;;3.20;;
3625;SDS011;1827;50.534;8.316;2022-07-29T02:26:04;23.60;;;3.10;;
3625;SDS011;1827;50.534;8.316;2022-07-29T02:28:32;18.63;;;3.03;;
3625;SDS011;1827;50.534;8.316;2022-07-29T02:30:59;20.07;;;3.10;;
3625;SDS011;1827;50.534;8.316;2022-07-29T02:33:27;18.00;;;3.13;;
3625;SDS011;1827;50.534;8.316;2022-07-29T02:35:55;24.63;;;3.60;;
3625;SDS011;1827;50.534;8.316;2022-07-29T02:38:24;15.83;;;3.10;;
3625;SDS011;1827;50.534;8.316;2022-07-29T02:41:11;17.30;;;3.37;;
3625;SDS011;1827;50.534;8.316;2022-07-29T02:43:40;18.00;;;3.20;;
3625;SDS011;1827;50.534;8.316;2022-07-29T02:46:11;16.70;;;3.20;;
3625;SDS011;1827;50.534;8.316;2022-07-29T02:48:43;19.80;;;3.50;;
3625;SDS011;1827;50.534;8.316;2022-07-29T02:51:18;18.70;;;3.63;;
3625;SDS011;1827;50.534;8.316;2022-07-29T02:53:51;18.97;;;3.40;;
3625;SDS011;1827;50.534;8.316;2022-07-29T02:56:22;21.77;;;4.03;;
3625;SDS011;1827;50.534;8.316;2022-07-29T02:58:57;22.10;;;3.20;;
3625;SDS011;1827;50.534;8.316;2022-07-29T03:01:27;18.70;;;3.20;;
3625;SDS011;1827;50.534;8.316;2022-07-29T03:03:56;19.10;;;3.33;;
3625;SDS011;1827;50.534;8.316;2022-07-29T03:06:28;23.17;;;3.30;;
3625;SDS011;1827;50.534;8.316;2022-07-29T03:08:55;22.87;;;3.23;;
3625;SDS011;1827;50.534;8.316;2022-07-29T03:11:24;20.20;;;3.63;;
3625;SDS011;1827;50.534;8.316;2022-07-29T03:13:50;21.97;;;3.03;;
3625;SDS011;1827;50.534;8.316;2022-07-29T03:16:18;22.17;;;3.30;;
3625;SDS011;1827;50.534;8.316;2022-07-29T03:18:44;18.23;;;3.10;;
3625;SDS011;1827;50.534;8.316;2022-07-29T03:21:10;18.10;;;3.40;;
3625;SDS011;1827;50.534;8.316;2022-07-29T03:23:36;17.27;;;3.47;;
3625;SDS011;1827;50.534;8.316;2022-07-29T03:26:02;17.63;;;3.20;;
3625;SDS011;1827;50.534;8.316;2022-07-29T03:28:28;20.33;;;3.37;;
3625;SDS011;1827;50.534;8.316;2022-07-29T03:30:54;18.97;;;3.33;;
3625;SDS011;1827;50.534;8.316;2022-07-29T03:33:20;16.77;;;3.40;;
3625;SDS011;1827;50.534;8.316;2022-07-29T03:35:46;23.17;;;3.60;;
3625;SDS011;1827;50.534;8.316;2022-07-29T03:38:12;18.70;;;3.87;;
3625;SDS011;1827;50.534;8.316;2022-07-29T03:40:40;22.57;;;3.30;;
3625;SDS011;1827;50.534;8.316;2022-07-29T03:43:11;27.00;;;3.67;;
3625;SDS011;1827;50.534;8.316;2022-07-29T03:45:40;19.53;;;3.70;;
3625;SDS011;1827;50.534;8.316;2022-07-29T03:48:10;20.73;;;3.80;;
3625;SDS011;1827;50.534;8.316;2022-07-29T03:50:40;21.17;;;3.70;;
3625;SDS011;1827;50.534;8.316;2022-07-29T03:53:06;22.53;;;4.10;;
3625;SDS011;1827;50.534;8.316;2022-07-29T03:55:33;21.70;;;3.80;;
3625;SDS011;1827;50.534;8.316;2022-07-29T03:58:05;18.40;;;3.90;;
3625;SDS011;1827;50.534;8.316;2022-07-29T04:00:33;18.30;;;3.80;;
3625;SDS011;1827;50.534;8.316;2022-07-29T04:03:00;21.40;;;4.33;;
3625;SDS011;1827;50.534;8.316;2022-07-29T04:05:26;21.60;;;4.33;;
3625;SDS011;1827;50.534;8.316;2022-07-29T04:07:52;22.63;;;4.63;;
3625;SDS011;1827;50.534;8.316;2022-07-29T04:10:18;21.50;;;4.67;;
3625;SDS011;1827;50.534;8.316;2022-07-29T04:12:44;21.93;;;4.70;;
3625;SDS011;1827;50.534;8.316;2022-07-29T04:15:11;26.00;;;4.57;;
3625;SDS011;1827;50.534;8.316;2022-07-29T04:17:37;26.57;;;4.67;;
3625;SDS011;1827;50.534;8.316;2022-07-29T04:20:03;23.33;;;4.43;;
3625;SDS011;1827;50.534;8.316;2022-07-29T04:22:29;20.60;;;4.60;;
3625;SDS011;1827;50.534;8.316;2022-07-29T04:24:55;23.53;;;4.97;;
3625;SDS011;1827;50.534;8.316;2022-07-29T04:27:21;23.73;;;5.60;;
3625;SDS011;1827;50.534;8.316;2022-07-29T04:29:47;20.40;;;4.43;;
3625;SDS011;1827;50.534;8.316;2022-07-29T04:32:13;25.70;;;4.43;;
3625;SDS011;1827;50.534;8.316;2022-07-29T04:34:39;23.73;;;4.67;;
3625;SDS011;1827;50.534;8.316;2022-07-29T04:37:05;24.73;;;4.30;;
3625;SDS011;1827;50.534;8.316;2022-07-29T04:39:30;23.00;;;4.17;;
3625;SDS011;1827;50.534;8.316;2022-07-29T04:41:56;23.20;;;4.50;;
3625;SDS011;1827;50.534;8.316;2022-07-29T04:44:22;25.87;;;4.90;;
3625;SDS011;1827;50.534;8.316;2022-07-29T04:46:48;30.53;;;4.33;;
3625;SDS011;1827;50.534;8.316;2022-07-29T04:49:14;24.23;;;4.20;;
3625;SDS011;1827;50.534;8.316;2022-07-29T04:51:39;21.60;;;4.20;;
3625;SDS011;1827;50.534;8.316;2022-07-29T04:54:05;25.87;;;5.20;;
3625;SDS011;1827;50.534;8.316;2022-07-29T04:56:31;20.70;;;4.90;;
3625;SDS011;1827;50.534;8.316;2022-07-29T04:58:57;22.40;;;4.70;;
3625;SDS011;1827;50.534;8.316;2022-07-29T05:01:22;28.93;;;5.07;;
3625;SDS011;1827;50.534;8.316;2022-07-29T05:03:48;26.93;;;5.43;;
3625;SDS011;1827;50.534;8.316;2022-07-29T05:06:14;19.80;;;4.37;;
3625;SDS011;1827;50.534;8.316;2022-07-29T05:08:40;20.60;;;5.00;;
3625;SDS011;1827;50.534;8.316;2022-07-29T05:11:06;28.97;;;5.50;;
3625;SDS011;1827;50.534;8.316;2022-07-29T05:13:32;26.03;;;5.10;;
3625;SDS011;1827;50.534;8.316;2022-07-29T05:15:58;22.20;;;4.70;;
3625;SDS011;1827;50.534;8.316;2022-07-29T05:18:24;20.03;;;4.60;;
3625;SDS011;1827;50.534;8.316;2022-07-29T05:20:50;21.17;;;4.53;;
3625;SDS011;1827;50.534;8.316;2022-07-29T05:23:16;21.70;;;4.77;;
3625;SDS011;1827;50.534;8.316;2022-07-29T05:25:42;18.90;;;4.23;;
3625;SDS011;1827;50.534;8.316;2022-07-29T05:28:08;20.03;;;4.40;;
3625;SDS011;1827;50.534;8.316;2022-07-29T05:30:34;27.57;;;4.40;;
3625;SDS011;1827;50.534;8.316;2022-07-29T05:33:00;27.83;;;4.10;;
3625;SDS011;1827;50.534;8.316;2022-07-29T05:35:26;21.80;;;3.67;;
3625;SDS011;1827;50.534;8.316;2022-07-29T05:37:51;18.97;;;3.77;;
3625;SDS011;1827;50.534;8.316;2022-07-29T05:40:17;23.10;;;3.73;;
3625;SDS011;1827;50.534;8.316;2022-07-29T05:42:43;20.90;;;3.80;;
3625;SDS011;1827;50.534;8.316;2022-07-29T05:45:09;25.80;;;3.90;;
3625;SDS011;1827;50.534;8.316;2022-07-29T05:47:35;23.33;;;3.90;;
3625;SDS011;1827;50.534;8.316;2022-07-29T05:50:01;20.83;;;3.80;;
3625;SDS011;1827;50.534;8.316;2022-07-29T05:52:27;20.97;;;4.10;;
3625;SDS011;1827;50.534;8.316;2022-07-29T05:54:52;19.53;;;3.43;;
3625;SDS011;1827;50.534;8.316;2022-07-29T05:57:19;21.47;;;3.40;;
3625;SDS011;1827;50.534;8.316;2022-07-29T05:59:47;21.00;;;4.27;;
3625;SDS011;1827;50.534;8.316;2022-07-29T06:02:13;23.43;;;3.40;;
3625;SDS011;1827;50.534;8.316;2022-07-29T06:04:40;23.83;;;3.90;;
3625;SDS011;1827;50.534;8.316;2022-07-29T06:07:06;20.73;;;3.23;;
3625;SDS011;1827;50.534;8.316;2022-07-29T06:09:32;18.93;;;3.10;;
3625;SDS011;1827;50.534;8.316;2022-07-29T06:11:58;17.37;;;2.97;;
3625;SDS011;1827;50.534;8.316;2022-07-29T06:14:24;20.23;;;3.50;;
3625;SDS011;1827;50.534;8.316;2022-07-29T06:16:51;19.57;;;3.20;;
3625;SDS011;1827;50.534;8.316;2022-07-29T06:19:18;16.10;;;2.77;;
3625;SDS011;1827;50.534;8.316;2022-07-29T06:21:46;24.70;;;3.60;;
3625;SDS011;1827;50.534;8.316;2022-07-29T06:24:13;17.97;;;3.80;;
3625;SDS011;1827;50.534;8.316;2022-07-29T06:26:40;21.50;;;3.27;;
3625;SDS011;1827;50.534;8.316;2022-07-29T06:29:06;18.97;;;3.30;;
3625;SDS011;1827;50.534;8.316;2022-07-29T06:31:33;18.73;;;3.10;;
3625;SDS011;1827;50.534;8.316;2022-07-29T06:33:59;16.30;;;2.53;;
3625;SDS011;1827;50.534;8.316;2022-07-29T06:36:24;17.60;;;2.30;;
3625;SDS011;1827;50.534;8.316;2022-07-29T06:38:50;19.80;;;2.93;;
3625;SDS011;1827;50.534;8.316;2022-07-29T06:41:16;19.30;;;2.33;;
3625;SDS011;1827;50.534;8.316;2022-07-29T06:43:44;23.90;;;2.90;;
3625;SDS011;1827;50.534;8.316;2022-07-29T06:46:14;20.03;;;2.73;;
3625;SDS011;1827;50.534;8.316;2022-07-29T06:48:42;20.57;;;3.00;;
3625;SDS011;1827;50.534;8.316;2022-07-29T06:51:10;17.37;;;2.80;;
3625;SDS011;1827;50.534;8.316;2022-07-29T06:53:36;21.90;;;2.70;;
3625;SDS011;1827;50.534;8.316;2022-07-29T06:56:03;16.60;;;2.73;;
3625;SDS011;1827;50.534;8.316;2022-07-29T06:58:30;23.30;;;2.90;;
3625;SDS011;1827;50.534;8.316;2022-07-29T07:00:57;18.10;;;3.07;;
3625;SDS011;1827;50.534;8.316;2022-07-29T07:03:24;24.40;;;3.23;;
3625;SDS011;1827;50.534;8.316;2022-07-29T07:05:51;28.83;;;3.50;;
3625;SDS011;1827;50.534;8.316;2022-07-29T07:08:19;31.93;;;3.20;;
3625;SDS011;1827;50.534;8.316;2022-07-29T07:10:45;22.03;;;2.90;;
3625;SDS011;1827;50.534;8.316;2022-07-29T07:13:11;19.70;;;2.77;;
3625;SDS011;1827;50.534;8.316;2022-07-29T07:15:37;19.37;;;2.90;;
3625;SDS011;1827;50.534;8.316;2022-07-29T07:18:04;19.67;;;2.87;;
3625;SDS011;1827;50.534;8.316;2022-07-29T07:20:31;21.60;;;2.97;;
3625;SDS011;1827;50.534;8.316;2022-07-29T07:22:57;26.03;;;2.90;;
3625;SDS011;1827;50.534;8.316;2022-07-29T07:25:23;29.13;;;2.90;;
3625;SDS011;1827;50.534;8.316;2022-07-29T07:27:49;21.47;;;3.10;;
3625;SDS011;1827;50.534;8.316;2022-07-29T07:30:15;31.33;;;4.27;;
3625;SDS011;1827;50.534;8.316;2022-07-29T07:32:41;30.60;;;4.37;;
3625;SDS011;1827;50.534;8.316;2022-07-29T07:35:08;32.40;;;4.30;;
3625;SDS011;1827;50.534;8.316;2022-07-29T07:37:35;36.27;;;3.63;;
3625;SDS011;1827;50.534;8.316;2022-07-29T07:40:02;21.73;;;3.13;;
3625;SDS011;1827;50.534;8.316;2022-07-29T07:42:29;19.87;;;3.13;;
3625;SDS011;1827;50.534;8.316;2022-07-29T07:44:55;18.90;;;2.67;;
3625;SDS011;1827;50.534;8.316;2022-07-29T07:47:20;21.43;;;2.47;;
3625;SDS011;1827;50.534;8.316;2022-07-29T07:49:51;18.00;;;2.53;;
3625;SDS011;1827;50.534;8.316;2022-07-29T07:52:18;13.97;;;1.93;;
3625;SDS011;1827;50.534;8.316;2022-07-29T07:54:46;18.90;;;2.43;;
3625;SDS011;1827;50.534;8.316;2022-07-29T07:57:12;17.27;;;2.50;;
3625;SDS011;1827;50.534;8.316;2022-07-29T07:59:38;17.23;;;2.47;;
3625;SDS011;1827;50.534;8.316;2022-07-29T08:02:05;19.53;;;2.40;;
3625;SDS011;1827;50.534;8.316;2022-07-29T08:04:30;17.67;;;2.40;;
3625;SDS011;1827;50.534;8.316;2022-07-29T08:06:57;18.30;;;2.50;;
3625;SDS011;1827;50.534;8.316;2022-07-29T08:09:23;13.50;;;2.00;;
3625;SDS011;1827;50.534;8.316;2022-07-29T08:11:50;20.83;;;2.30;;
3625;SDS011;1827;50.534;8.316;2022-07-29T08:14:16;17.40;;;2.47;;
3625;SDS011;1827;50.534;8.316;2022-07-29T08:16:42;19.77;;;2.67;;
3625;SDS011;1827;50.534;8.316;2022-07-29T08:19:08;15.90;;;2.77;;
3625;SDS011;1827;50.534;8.316;2022-07-29T08:21:34;19.17;;;2.87;;
3625;SDS011;1827;50.534;8.316;2022-07-29T08:24:01;18.63;;;2.70;;
3625;SDS011;1827;50.534;8.316;2022-07-29T08:26:45;17.50;;;2.63;;
3625;SDS011;1827;50.534;8.316;2022-07-29T08:29:11;18.00;;;2.50;;
3625;SDS011;1827;50.534;8.316;2022-07-29T08:31:38;18.67;;;2.70;;
3625;SDS011;1827;50.534;8.316;2022-07-29T08:34:06;14.70;;;2.47;;
3625;SDS011;1827;50.534;8.316;2022-07-29T08:36:32;16.00;;;2.10;;
3625;SDS011;1827;50.534;8.316;2022-07-29T08:38:59;25.60;;;2.23;;
3625;SDS011;1827;50.534;8.316;2022-07-29T08:41:26;15.60;;;2.37;;
3625;SDS011;1827;50.534;8.316;2022-07-29T08:43:52;18.83;;;2.57;;
3625;SDS011;1827;50.534;8.316;2022-07-29T08:46:18;13.20;;;2.13;;
3625;SDS011;1827;50.534;8.316;2022-07-29T08:48:44;15.23;;;2.40;;
3625;SDS011;1827;50.534;8.316;2022-07-29T08:51:14;17.73;;;3.00;;
3625;SDS011;1827;50.534;8.316;2022-07-29T08:53:42;14.20;;;2.60;;
3625;SDS011;1827;50.534;8.316;2022-07-29T08:56:13;22.67;;;2.73;;
3625;SDS011;1827;50.534;8.316;2022-07-29T08:58:42;16.33;;;2.50;;
3625;SDS011;1827;50.534;8.316;2022-07-29T09:01:08;19.70;;;2.90;;
3625;SDS011;1827;50.534;8.316;2022-07-29T09:03:36;15.70;;;2.87;;
3625;SDS011;1827;50.534;8.316;2022-07-29T09:06:05;19.93;;;2.90;;
3625;SDS011;1827;50.534;8.316;2022-07-29T09:08:31;21.60;;;2.73;;
3625;SDS011;1827;50.534;8.316;2022-07-29T09:11:03;17.00;;;2.90;;
3625;SDS011;1827;50.534;8.316;2022-07-29T09:13:28;20.13;;;3.20;;
3625;SDS011;1827;50.534;8.316;2022-07-29T09:15:54;14.53;;;2.53;;
3625;SDS011;1827;50.534;8.316;2022-07-29T09:21:06;13.77;;;2.27;;
3625;SDS011;1827;50.534;8.316;2022-07-29T09:23:59;14.93;;;2.70;;
3625;SDS011;1827;50.534;8.316;2022-07-29T09:26:32;16.37;;;2.83;;
3625;SDS011;1827;50.534;8.316;2022-07-29T09:28:59;12.87;;;2.40;;
3625;SDS011;1827;50.534;8.316;2022-07-29T09:31:33;16.60;;;2.40;;
3625;SDS011;1827;50.534;8.316;2022-07-29T09:34:00;15.47;;;2.80;;
3625;SDS011;1827;50.534;8.316;2022-07-29T09:36:26;15.40;;;2.47;;
3625;SDS011;1827;50.534;8.316;2022-07-29T09:38:58;15.73;;;2.70;;
3625;SDS011;1827;50.534;8.316;2022-07-29T09:41:25;25.70;;;2.90;;
3625;SDS011;1827;50.534;8.316;2022-07-29T09:43:58;15.83;;;2.37;;
3625;SDS011;1827;50.534;8.316;2022-07-29T09:46:25;20.03;;;2.80;;
3625;SDS011;1827;50.534;8.316;2022-07-29T09:49:10;18.23;;;2.50;;
3625;SDS011;1827;50.534;8.316;2022-07-29T09:51:38;15.80;;;2.60;;
3625;SDS011;1827;50.534;8.316;2022-07-29T09:56:50;13.17;;;2.60;;
3625;SDS011;1827;50.534;8.316;2022-07-29T09:59:17;17.13;;;2.60;;
3625;SDS011;1827;50.534;8.316;2022-07-29T10:01:45;14.83;;;2.30;;
3625;SDS011;1827;50.534;8.316;2022-07-29T10:04:11;13.80;;;2.50;;
3625;SDS011;1827;50.534;8.316;2022-07-29T10:06:56;14.10;;;2.40;;
3625;SDS011;1827;50.534;8.316;2022-07-29T10:09:22;17.67;;;3.10;;
3625;SDS011;1827;50.534;8.316;2022-07-29T10:14:34;15.97;;;2.60;;
3625;SDS011;1827;50.534;8.316;2022-07-29T10:17:00;19.33;;;2.80;;
3625;SDS011;1827;50.534;8.316;2022-07-29T10:19:30;18.30;;;3.23;;
3625;SDS011;1827;50.534;8.316;2022-07-29T10:21:57;20.93;;;2.60;;
3625;SDS011;1827;50.534;8.316;2022-07-29T10:24:25;13.97;;;2.40;;
3625;SDS011;1827;50.534;8.316;2022-07-29T10:26:53;15.17;;;2.50;;
3625;SDS011;1827;50.534;8.316;2022-07-29T10:29:20;15.63;;;2.70;;
3625;SDS011;1827;50.534;8.316;2022-07-29T10:43:54;15.30;;;2.40;;
3625;SDS011;1827;50.534;8.316;2022-07-29T10:46:35;16.90;;;2.80;;
3625;SDS011;1827;50.534;8.316;2022-07-29T10:49:12;17.83;;;2.57;;
3625;SDS011;1827;50.534;8.316;2022-07-29T10:59:47;17.33;;;2.73;;
3625;SDS011;1827;50.534;8.316;2022-07-29T11:05:18;14.10;;;2.70;;
3625;SDS011;1827;50.534;8.316;2022-07-29T11:10:37;11.43;;;2.07;;
3625;SDS011;1827;50.534;8.316;2022-07-29T11:13:03;14.53;;;2.30;;
3625;SDS011;1827;50.534;8.316;2022-07-29T11:15:28;19.23;;;2.10;;
3625;SDS011;1827;50.534;8.316;2022-07-29T11:18:14;12.60;;;2.40;;
3625;SDS011;1827;50.534;8.316;2022-07-29T11:20:44;14.00;;;2.03;;
3625;SDS011;1827;50.534;8.316;2022-07-29T11:28:50;13.83;;;2.27;;
3625;SDS011;1827;50.534;8.316;2022-07-29T11:31:20;15.07;;;2.40;;
3625;SDS011;1827;50.534;8.316;2022-07-29T11:34:17;16.23;;;2.53;;
3625;SDS011;1827;50.534;8.316;2022-07-29T11:39:39;13.20;;;2.87;;
3625;SDS011;1827;50.534;8.316;2022-07-29T11:47:25;11.93;;;2.27;;
3625;SDS011;1827;50.534;8.316;2022-07-29T11:49:53;13.73;;;2.40;;
3625;SDS011;1827;50.534;8.316;2022-07-29T11:52:23;12.67;;;2.00;;
3625;SDS011;1827;50.534;8.316;2022-07-29T11:54:57;12.57;;;2.13;;
3625;SDS011;1827;50.534;8.316;2022-07-29T11:57:26;12.30;;;2.10;;
3625;SDS011;1827;50.534;8.316;2022-07-29T11:59:53;15.20;;;2.60;;
3625;SDS011;1827;50.534;8.316;2022-07-29T12:02:20;15.10;;;2.40;;
3625;SDS011;1827;50.534;8.316;2022-07-29T12:07:31;12.77;;;2.30;;
3625;SDS011;1827;50.534;8.316;2022-07-29T12:09:58;13.63;;;2.53;;
3625;SDS011;1827;50.534;8.316;2022-07-29T12:12:25;11.47;;;2.10;;
3625;SDS011;1827;50.534;8.316;2022-07-29T12:14:51;11.27;;;2.00;;
3625;SDS011;1827;50.534;8.316;2022-07-29T12:17:30;13.80;;;2.20;;
3625;SDS011;1827;50.534;8.316;2022-07-29T12:19:58;12.70;;;2.30;;
3625;SDS011;1827;50.534;8.316;2022-07-29T12:22:26;11.37;;;2.00;;
3625;SDS011;1827;50.534;8.316;2022-07-29T12:24:53;14.37;;;2.30;;
3625;SDS011;1827;50.534;8.316;2022-07-29T12:27:20;13.13;;;2.20;;
3625;SDS011;1827;50.534;8.316;2022-07-29T12:30:02;11.50;;;1.83;;
3625;SDS011;1827;50.534;8.316;2022-07-29T12:32:37;12.40;;;2.10;;
3625;SDS011;1827;50.534;8.316;2022-07-29T12:35:05;13.53;;;2.20;;
3625;SDS011;1827;50.534;8.316;2022-07-29T12:37:33;11.10;;;2.10;;
3625;SDS011;1827;50.534;8.316;2022-07-29T12:40:02;11.10;;;2.13;;
3625;SDS011;1827;50.534;8.316;2022-07-29T12:42:29;13.10;;;2.33;;
3625;SDS011;1827;50.534;8.316;2022-07-29T12:44:55;11.33;;;2.13;;
3625;SDS011;1827;50.534;8.316;2022-07-29T12:47:20;13.07;;;2.60;;
3625;SDS011;1827;50.534;8.316;2022-07-29T12:49:47;12.30;;;1.90;;
3625;SDS011;1827;50.534;8.316;2022-07-29T12:52:24;11.77;;;2.43;;
3625;SDS011;1827;50.534;8.316;2022-07-29T12:54:54;14.47;;;2.57;;
3625;SDS011;1827;50.534;8.316;2022-07-29T12:57:19;11.30;;;2.10;;
3625;SDS011;1827;50.534;8.316;2022-07-29T12:59:58;12.10;;;2.40;;
3625;SDS011;1827;50.534;8.316;2022-07-29T13:02:38;12.37;;;2.10;;
3625;SDS011;1827;50.534;8.316;2022-07-29T13:05:06;15.30;;;2.33;;
3625;SDS011;1827;50.534;8.316;2022-07-29T13:07:33;10.53;;;1.90;;
3625;SDS011;1827;50.534;8.316;2022-07-29T13:15:34;10.90;;;2.20;;
3625;SDS011;1827;50.534;8.316;2022-07-29T13:18:02;11.20;;;1.90;;
3625;SDS011;1827;50.534;8.316;2022-07-29T13:20:29;14.57;;;2.50;;
3625;SDS011;1827;50.534;8.316;2022-07-29T13:22:56;12.80;;;2.40;;
3625;SDS011;1827;50.534;8.316;2022-07-29T13:25:23;11.57;;;2.00;;
3625;SDS011;1827;50.534;8.316;2022-07-29T13:27:54;12.57;;;2.50;;
3625;SDS011;1827;50.534;8.316;2022-07-29T13:30:20;13.43;;;2.03;;
3625;SDS011;1827;50.534;8.316;2022-07-29T13:32:47;12.97;;;2.13;;
3625;SDS011;1827;50.534;8.316;2022-07-29T13:35:13;12.83;;;2.27;;
3625;SDS011;1827;50.534;8.316;2022-07-29T13:37:39;14.73;;;2.13;;
3625;SDS011;1827;50.534;8.316;2022-07-29T13:40:06;13.50;;;2.20;;
3625;SDS011;1827;50.534;8.316;2022-07-29T13:42:33;12.00;;;2.33;;
3625;SDS011;1827;50.534;8.316;2022-07-29T13:45:00;13.10;;;2.10;;
3625;SDS011;1827;50.534;8.316;2022-07-29T13:47:26;13.40;;;2.30;;
3625;SDS011;1827;50.534;8.316;2022-07-29T13:49:53;12.77;;;2.37;;
3625;SDS011;1827;50.534;8.316;2022-07-29T13:52:19;16.80;;;2.57;;
3625;SDS011;1827;50.534;8.316;2022-07-29T13:54:45;16.67;;;2.30;;
3625;SDS011;1827;50.534;8.316;2022-07-29T13:57:12;13.83;;;2.23;;
3625;SDS011;1827;50.534;8.316;2022-07-29T13:59:39;11.97;;;2.33;;
3625;SDS011;1827;50.534;8.316;2022-07-29T14:02:08;14.73;;;2.67;;
3625;SDS011;1827;50.534;8.316;2022-07-29T14:04:35;15.17;;;2.60;;
3625;SDS011;1827;50.534;8.316;2022-07-29T14:07:01;16.90;;;2.40;;
3625;SDS011;1827;50.534;8.316;2022-07-29T14:09:27;15.23;;;2.87;;
3625;SDS011;1827;50.534;8.316;2022-07-29T14:11:53;16.33;;;2.70;;
3625;SDS011;1827;50.534;8.316;2022-07-29T14:14:19;12.83;;;2.70;;
3625;SDS011;1827;50.534;8.316;2022-07-29T14:16:45;14.27;;;3.00;;
3625;SDS011;1827;50.534;8.316;2022-07-29T14:19:10;15.23;;;2.60;;
3625;SDS011;1827;50.534;8.316;2022-07-29T14:21:37;18.10;;;2.83;;
3625;SDS011;1827;50.534;8.316;2022-07-29T14:24:03;16.00;;;2.80;;
3625;SDS011;1827;50.534;8.316;2022-07-29T14:26:29;14.60;;;3.17;;
3625;SDS011;1827;50.534;8.316;2022-07-29T14:28:55;14.67;;;3.03;;
3625;SDS011;1827;50.534;8.316;2022-07-29T14:31:21;15.43;;;2.70;;
3625;SDS011;1827;50.534;8.316;2022-07-29T14:33:46;16.03;;;3.10;;
3625;SDS011;1827;50.534;8.316;2022-07-29T14:36:12;14.53;;;2.90;;
3625;SDS011;1827;50.534;8.316;2022-07-29T14:38:38;15.90;;;3.30;;
3625;SDS011;1827;50.534;8.316;2022-07-29T14:41:05;18.23;;;3.10;;
3625;SDS011;1827;50.534;8.316;2022-07-29T14:43:33;20.50;;;3.43;;
3625;SDS011;1827;50.534;8.316;2022-07-29T14:46:00;30.63;;;3.97;;
3625;SDS011;1827;50.534;8.316;2022-07-29T14:48:26;23.53;;;3.90;;
3625;SDS011;1827;50.534;8.316;2022-07-29T14:50:52;22.67;;;4.30;;
3625;SDS011;1827;50.534;8.316;2022-07-29T14:53:21;31.63;;;5.63;;
3625;SDS011;1827;50.534;8.316;2022-07-29T14:55:47;27.23;;;4.77;;
3625;SDS011;1827;50.534;8.316;2022-07-29T14:58:14;22.13;;;5.73;;
3625;SDS011;1827;50.534;8.316;2022-07-29T15:00:40;28.10;;;6.30;;
3625;SDS011;1827;50.534;8.316;2022-07-29T15:03:06;30.60;;;6.40;;
3625;SDS011;1827;50.534;8.316;2022-07-29T15:05:34;25.23;;;6.77;;
3625;SDS011;1827;50.534;8.316;2022-07-29T15:08:00;26.60;;;6.23;;
3625;SDS011;1827;50.534;8.316;2022-07-29T15:10:26;23.70;;;5.70;;
3625;SDS011;1827;50.534;8.316;2022-07-29T15:12:52;20.73;;;5.67;;
3625;SDS011;1827;50.534;8.316;2022-07-29T15:15:18;23.03;;;6.00;;
3625;SDS011;1827;50.534;8.316;2022-07-29T15:17:44;23.33;;;5.60;;
3625;SDS011;1827;50.534;8.316;2022-07-29T15:20:10;26.20;;;4.93;;
3625;SDS011;1827;50.534;8.316;2022-07-29T15:22:37;24.00;;;4.93;;
3625;SDS011;1827;50.534;8.316;2022-07-29T15:25:03;20.73;;;5.30;;
3625;SDS011;1827;50.534;8.316;2022-07-29T15:27:30;22.60;;;4.43;;
3625;SDS011;1827;50.534;8.316;2022-07-29T15:29:56;19.20;;;4.00;;
3625;SDS011;1827;50.534;8.316;2022-07-29T15:32:22;24.87;;;4.50;;
3625;SDS011;1827;50.534;8.316;2022-07-29T15:34:48;20.47;;;4.13;;
3625;SDS011;1827;50.534;8.316;2022-07-29T15:37:14;23.37;;;4.40;;
3625;SDS011;1827;50.534;8.316;2022-07-29T15:39:40;24.33;;;4.10;;
3625;SDS011;1827;50.534;8.316;2022-07-29T15:42:05;20.10;;;3.60;;
3625;SDS011;1827;50.534;8.316;2022-07-29T15:44:31;16.70;;;3.67;;
3625;SDS011;1827;50.534;8.316;2022-07-29T15:46:57;16.90;;;3.47;;
3625;SDS011;1827;50.534;8.316;2022-07-29T15:49:36;18.93;;;3.60;;
3625;SDS011;1827;50.534;8.316;2022-07-29T15:52:05;15.37;;;3.30;;
3625;SDS011;1827;50.534;8.316;2022-07-29T15:54:33;20.60;;;3.80;;
3625;SDS011;1827;50.534;8.316;2022-07-29T15:57:00;16.60;;;3.60;;
3625;SDS011;1827;50.534;8.316;2022-07-29T15:59:26;14.43;;;3.10;;
3625;SDS011;1827;50.534;8.316;2022-07-29T16:01:52;16.40;;;3.80;;
3625;SDS011;1827;50.534;8.316;2022-07-29T16:04:18;18.07;;;3.80;;
3625;SDS011;1827;50.534;8.316;2022-07-29T16:06:44;17.63;;;3.83;;
3625;SDS011;1827;50.534;8.316;2022-07-29T16:09:11;17.73;;;3.73;;